Terminal Aerodrome Forecast
Issued by NWS Jacksonville, FL

Home | Current Version | Previous Version | Text Only | Print | Product List | Glossary On
Versions: 1 2 3 4 5 6 7 8 9 10 11 12 13 14 15 16 17 18 19 20
000
FTUS42 KJAX 260351 AAD
TAFSSI
TAF AMD
KSSI 260351Z 2604/2624 25008KT P6SM FEW020 BKN120 BKN200
     FM261200 25010G18KT P6SM SCT020 SCT200
     FM261800 24013G23KT P6SM SCT050 SCT250
     FM262300 27010G15KT P6SM VCSH SCT040 SCT150 BKN250=

USA.gov is the U.S. government's official web portal to all federal, state and local government web resources and services.